Riparius, New York
Current Conditions -  °F | °C
As of 3:53 AM on Thursday 27 Nov 2014 (Local Time) from KGFL Reporting Station
Broken Clouds Broken Clouds  
Wind Chill: 25°   Ceiling: 2300
Heat Index: 30°   Visibility: 10mi
Dew Point: 27°   Wind: 5mph
Humidity: 88%   Direction: 340°NNW
Pressure: 29.91"   Gusts: NA
Location:  43.66°N, 73.9°W
Report Text: KGFL 270853Z AUTO 34004KT 10SM BKN023 M01/M03 A2991 RMK AO2 SNE29 SLP138 P0000 60000 T10111028 50005
Loading
Personal Weather Stations






























Interactive Weather Map New forecast layout! Learn more

10-Day Weather Forecast

Advertisements
Track Severe Weather on mobile